createdAt,value
2019-03-23T00:00:41.522Z,1021.89
2019-03-23T00:01:41.536Z,1021.88
2019-03-23T00:02:41.555Z,1021.90
2019-03-23T00:03:41.564Z,1021.88
2019-03-23T00:04:41.580Z,1021.86
2019-03-23T00:05:41.594Z,1021.88
2019-03-23T00:06:41.610Z,1021.86
2019-03-23T00:07:41.624Z,1021.89
2019-03-23T00:08:41.640Z,1021.89
2019-03-23T00:09:41.655Z,1021.85
2019-03-23T00:10:41.668Z,1021.81
2019-03-23T00:11:41.701Z,1021.85
2019-03-23T00:12:41.696Z,1021.80
2019-03-23T00:13:41.712Z,1021.78
2019-03-23T00:14:41.731Z,1021.77
2019-03-23T00:15:41.740Z,1021.79
2019-03-23T00:16:41.759Z,1021.75
2019-03-23T00:17:41.770Z,1021.78
2019-03-23T00:18:41.786Z,1021.76
2019-03-23T00:19:41.801Z,1021.76
2019-03-23T00:20:41.815Z,1021.72
2019-03-23T00:21:41.830Z,1021.71
2019-03-23T00:22:41.844Z,1021.73
2019-03-23T00:23:41.862Z,1021.76
2019-03-23T00:24:41.874Z,1021.72
2019-03-23T00:25:41.886Z,1021.72
2019-03-23T00:26:41.906Z,1021.72
2019-03-23T00:27:41.915Z,1021.69
2019-03-23T00:28:41.933Z,1021.64
2019-03-23T00:29:41.945Z,1021.67
2019-03-23T00:30:41.959Z,1021.67
2019-03-23T00:31:41.974Z,1021.65
2019-03-23T00:32:41.991Z,1021.66
2019-03-23T00:33:42.008Z,1021.67
2019-03-23T00:34:42.019Z,1021.65
2019-03-23T00:35:42.034Z,1021.64
2019-03-23T00:36:42.085Z,1021.60
2019-03-23T00:37:42.063Z,1021.59
2019-03-23T00:38:42.077Z,1021.58
2019-03-23T00:39:42.093Z,1021.53
2019-03-23T00:40:42.106Z,1021.51
2019-03-23T00:41:42.122Z,1021.51
2019-03-23T00:42:42.136Z,1021.48
2019-03-23T00:43:42.150Z,1021.51
2019-03-23T00:44:42.166Z,1021.46
2019-03-23T00:45:42.182Z,1021.48
2019-03-23T00:46:42.196Z,1021.44
2019-03-23T00:47:42.211Z,1021.38
2019-03-23T00:48:42.226Z,1021.39
2019-03-23T00:49:42.238Z,1021.40
2019-03-23T00:50:42.253Z,1021.35
2019-03-23T00:51:42.268Z,1021.36
2019-03-23T00:52:42.280Z,1021.32
2019-03-23T00:53:42.295Z,1021.32
2019-03-23T00:54:42.324Z,1021.34
2019-03-23T00:55:42.383Z,1021.26
2019-03-23T00:56:42.405Z,1021.22
2019-03-23T00:57:42.404Z,1021.22
2019-03-23T00:58:42.400Z,1021.23
2019-03-23T00:59:42.466Z,1021.21
2019-03-23T01:00:42.454Z,1021.18
2019-03-23T01:01:42.477Z,1021.18
2019-03-23T01:02:42.470Z,1021.21
2019-03-23T01:03:42.456Z,1021.24
2019-03-23T01:04:42.462Z,1021.19
2019-03-23T01:05:42.479Z,1021.25
2019-03-23T01:06:51.788Z,1021.20
2019-03-23T01:07:42.501Z,1021.16
2019-03-23T01:08:42.513Z,1021.18
2019-03-23T01:09:42.531Z,1021.13
2019-03-23T01:10:42.544Z,1021.13
2019-03-23T01:11:42.555Z,1021.13
2019-03-23T01:12:42.571Z,1021.10
2019-03-23T01:13:42.585Z,1021.10
2019-03-23T01:14:42.601Z,1021.11
2019-03-23T01:15:42.615Z,1021.06
2019-03-23T01:16:42.631Z,1021.09
2019-03-23T01:17:42.644Z,1021.03
2019-03-23T01:18:42.659Z,1021.04
2019-03-23T01:19:42.670Z,1021.08
2019-03-23T01:20:49.588Z,1021.08
2019-03-23T01:21:42.705Z,1021.06
2019-03-23T01:22:42.718Z,1021.07
2019-03-23T01:23:42.729Z,1021.08
2019-03-23T01:24:42.748Z,1021.05
2019-03-23T01:25:42.760Z,1021.08
2019-03-23T01:26:42.775Z,1021.03
2019-03-23T01:27:42.789Z,1021.04
2019-03-23T01:28:42.800Z,1020.99
2019-03-23T01:29:42.818Z,1021.00
2019-03-23T01:30:42.831Z,1020.98
2019-03-23T01:31:42.846Z,1020.98
2019-03-23T01:32:42.860Z,1020.98
2019-03-23T01:33:42.876Z,1020.93
2019-03-23T01:34:42.890Z,1020.94
2019-03-23T01:35:42.903Z,1020.93
2019-03-23T01:36:42.921Z,1020.93
2019-03-23T01:37:42.936Z,1020.95
2019-03-23T01:38:42.947Z,1020.89
2019-03-23T01:39:42.961Z,1020.91
2019-03-23T01:40:42.981Z,1020.90
2019-03-23T01:41:42.991Z,1020.88
2019-03-23T01:42:43.007Z,1020.83
2019-03-23T01:43:43.020Z,1020.84
2019-03-23T01:44:43.034Z,1020.78
2019-03-23T01:45:43.048Z,1020.75
2019-03-23T01:46:43.064Z,1020.71
2019-03-23T01:47:43.087Z,1020.69
2019-03-23T01:48:43.094Z,1020.68
2019-03-23T01:49:43.107Z,1020.68
2019-03-23T01:50:43.123Z,1020.69
2019-03-23T01:51:43.136Z,1020.69
2019-03-23T01:52:43.152Z,1020.69
2019-03-23T01:53:43.166Z,1020.67
2019-03-23T01:54:43.182Z,1020.67
2019-03-23T01:55:43.194Z,1020.63
2019-03-23T01:56:43.211Z,1020.62
2019-03-23T01:57:43.224Z,1020.65
2019-03-23T01:58:43.240Z,1020.60
2019-03-23T01:59:43.254Z,1020.54
2019-03-23T02:00:43.268Z,1020.53
2019-03-23T02:01:43.283Z,1020.56
2019-03-23T02:02:43.298Z,1020.54
2019-03-23T02:03:43.310Z,1020.53
2019-03-23T02:04:43.325Z,1020.52
2019-03-23T02:05:43.343Z,1020.53
2019-03-23T02:06:43.356Z,1020.53
2019-03-23T02:07:43.372Z,1020.55
2019-03-23T02:08:43.387Z,1020.54
2019-03-23T02:09:43.402Z,1020.54
2019-03-23T02:10:43.414Z,1020.57
2019-03-23T02:11:43.431Z,1020.50
2019-03-23T02:12:43.446Z,1020.53
2019-03-23T02:13:43.461Z,1020.54
2019-03-23T02:14:43.478Z,1020.57
2019-03-23T02:15:43.490Z,1020.51
2019-03-23T02:16:43.504Z,1020.52
2019-03-23T02:17:43.520Z,1020.53
2019-03-23T02:18:43.536Z,1020.54
2019-03-23T02:19:43.549Z,1020.49
2019-03-23T02:20:43.566Z,1020.49
2019-03-23T02:21:43.578Z,1020.51
2019-03-23T02:22:43.596Z,1020.48
2019-03-23T02:23:43.661Z,1020.49
2019-03-23T02:24:43.622Z,1020.53
2019-03-23T02:25:43.639Z,1020.52
2019-03-23T02:26:43.657Z,1020.46
2019-03-23T02:27:43.667Z,1020.46
2019-03-23T02:28:43.682Z,1020.50
2019-03-23T02:29:43.695Z,1020.49
2019-03-23T02:30:43.711Z,1020.49
2019-03-23T02:31:43.728Z,1020.52
2019-03-23T02:32:43.741Z,1020.54
2019-03-23T02:33:43.760Z,1020.50
2019-03-23T02:34:43.783Z,1020.53
2019-03-23T02:35:43.787Z,1020.52
2019-03-23T02:36:43.805Z,1020.54
2019-03-23T02:37:43.827Z,1020.54
2019-03-23T02:38:43.836Z,1020.51
2019-03-23T02:39:43.847Z,1020.52
2019-03-23T02:40:43.866Z,1020.50
2019-03-23T02:41:43.875Z,1020.49
2019-03-23T02:42:43.899Z,1020.46
2019-03-23T02:43:43.908Z,1020.48
2019-03-23T02:44:43.925Z,1020.45
2019-03-23T02:45:43.936Z,1020.42
2019-03-23T02:46:43.956Z,1020.46
2019-03-23T02:47:43.977Z,1020.41
2019-03-23T02:48:43.981Z,1020.45
2019-03-23T02:49:43.999Z,1020.45
2019-03-23T02:50:44.013Z,1020.44
2019-03-23T02:51:44.026Z,1020.45
2019-03-23T02:52:44.045Z,1020.45
2019-03-23T02:53:44.057Z,1020.45
2019-03-23T02:54:44.076Z,1020.43
2019-03-23T02:55:44.092Z,1020.46
2019-03-23T02:56:44.100Z,1020.44
2019-03-23T02:57:44.118Z,1020.51
2019-03-23T02:58:44.131Z,1020.51
2019-03-23T02:59:44.144Z,1020.55
2019-03-23T03:00:44.173Z,1020.53
2019-03-23T03:01:44.242Z,1020.53
2019-03-23T03:02:44.258Z,1020.49
2019-03-23T03:03:44.270Z,1020.49
2019-03-23T03:04:44.244Z,1020.50
2019-03-23T03:05:44.322Z,1020.43
2019-03-23T03:06:44.312Z,1020.45
2019-03-23T03:07:44.306Z,1020.45
2019-03-23T03:08:44.299Z,1020.45
2019-03-23T03:09:44.305Z,1020.47
2019-03-23T03:10:44.310Z,1020.42
2019-03-23T03:11:44.322Z,1020.41
2019-03-23T03:12:44.351Z,1020.41
2019-03-23T03:13:44.358Z,1020.37
2019-03-23T03:14:44.373Z,1020.39
2019-03-23T03:15:44.388Z,1020.35
2019-03-23T03:16:44.406Z,1020.37
2019-03-23T03:17:44.415Z,1020.35
2019-03-23T03:18:44.434Z,1020.33
2019-03-23T03:19:44.443Z,1020.34
2019-03-23T03:20:44.461Z,1020.38
2019-03-23T03:21:44.482Z,1020.35
2019-03-23T03:22:44.491Z,1020.34
2019-03-23T03:23:44.507Z,1020.37
2019-03-23T03:24:44.521Z,1020.37
2019-03-23T03:25:44.535Z,1020.40
2019-03-23T03:26:44.548Z,1020.38
2019-03-23T03:27:44.572Z,1020.42
2019-03-23T03:28:44.588Z,1020.43
2019-03-23T03:29:44.601Z,1020.45
2019-03-23T03:30:44.613Z,1020.47
2019-03-23T03:31:44.627Z,1020.46
2019-03-23T03:32:44.644Z,1020.50
2019-03-23T03:33:44.656Z,1020.49
2019-03-23T03:34:44.676Z,1020.50
2019-03-23T03:35:44.685Z,1020.46
2019-03-23T03:36:44.706Z,1020.47
2019-03-23T03:37:55.735Z,1020.41
2019-03-23T03:38:44.731Z,1020.42
2019-03-23T03:39:44.746Z,1020.45
2019-03-23T03:40:44.762Z,1020.37
2019-03-23T03:41:44.775Z,1020.38
2019-03-23T03:42:44.789Z,1020.38
2019-03-23T03:43:44.807Z,1020.40
2019-03-23T03:44:44.820Z,1020.40
2019-03-23T03:45:44.833Z,1020.37
2019-03-23T03:46:44.853Z,1020.44
2019-03-23T03:47:44.865Z,1020.44
2019-03-23T03:48:44.879Z,1020.42
2019-03-23T03:49:44.894Z,1020.43
2019-03-23T03:50:44.910Z,1020.42
2019-03-23T03:51:44.925Z,1020.38
2019-03-23T03:52:44.938Z,1020.39
2019-03-23T03:53:44.969Z,1020.32
2019-03-23T03:54:44.972Z,1020.35
2019-03-23T03:55:44.984Z,1020.35
2019-03-23T03:56:45.001Z,1020.36
2019-03-23T03:57:45.016Z,1020.30
2019-03-23T03:58:45.031Z,1020.35
2019-03-23T03:59:45.045Z,1020.27
2019-03-23T04:00:45.058Z,1020.26
2019-03-23T04:01:45.080Z,1020.24
2019-03-23T04:02:45.090Z,1020.20
2019-03-23T04:03:45.109Z,1020.24
2019-03-23T04:04:45.117Z,1020.19
2019-03-23T04:05:45.135Z,1020.19
2019-03-23T04:06:45.151Z,1020.19
2019-03-23T04:07:45.166Z,1020.24
2019-03-23T04:08:45.186Z,1020.25
2019-03-23T04:09:45.198Z,1020.30
2019-03-23T04:10:45.216Z,1020.24
2019-03-23T04:11:45.230Z,1020.22
2019-03-23T04:12:45.252Z,1020.22
2019-03-23T04:13:45.255Z,1020.26
2019-03-23T04:14:45.269Z,1020.22
2019-03-23T04:15:45.354Z,1020.24
2019-03-23T04:16:45.300Z,1020.26
2019-03-23T04:17:45.317Z,1020.26
2019-03-23T04:18:45.329Z,1020.22
2019-03-23T04:19:45.344Z,1020.22
2019-03-23T04:20:45.358Z,1020.19
2019-03-23T04:21:45.378Z,1020.17
2019-03-23T04:22:45.392Z,1020.23
2019-03-23T04:23:45.406Z,1020.22
2019-03-23T04:24:45.423Z,1020.20
2019-03-23T04:25:45.435Z,1020.23
2019-03-23T04:26:45.458Z,1020.24
2019-03-23T04:27:45.466Z,1020.20
2019-03-23T04:28:45.480Z,1020.20
2019-03-23T04:29:45.498Z,1020.18
2019-03-23T04:30:45.509Z,1020.21
2019-03-23T04:31:45.524Z,1020.22
2019-03-23T04:32:45.543Z,1020.20
2019-03-23T04:33:45.558Z,1020.17
2019-03-23T04:34:45.569Z,1020.19
2019-03-23T04:35:45.584Z,1020.19
2019-03-23T04:36:45.601Z,1020.20
2019-03-23T04:37:45.614Z,1020.16
2019-03-23T04:38:45.629Z,1020.22
2019-03-23T04:39:45.642Z,1020.20
2019-03-23T04:40:45.657Z,1020.16
2019-03-23T04:41:45.675Z,1020.16
2019-03-23T04:42:45.688Z,1020.19
2019-03-23T04:43:45.701Z,1020.20
2019-03-23T04:44:45.715Z,1020.20
2019-03-23T04:45:45.730Z,1020.18
2019-03-23T04:46:45.746Z,1020.15
2019-03-23T04:47:45.761Z,1020.17
2019-03-23T04:48:45.776Z,1020.17
2019-03-23T04:49:45.791Z,1020.16
2019-03-23T04:50:45.811Z,1020.15
2019-03-23T04:51:45.820Z,1020.13
2019-03-23T04:52:45.836Z,1020.14
2019-03-23T04:53:45.849Z,1020.12
2019-03-23T04:54:45.864Z,1020.10
2019-03-23T04:55:45.879Z,1020.05
2019-03-23T04:56:45.896Z,1020.06
2019-03-23T04:57:45.908Z,1020.06
2019-03-23T04:58:45.923Z,1020.09
2019-03-23T04:59:45.939Z,1020.06
2019-03-23T05:00:45.958Z,1020.10
2019-03-23T05:01:45.967Z,1020.08
2019-03-23T05:02:45.981Z,1020.08
2019-03-23T05:03:46.000Z,1020.08
2019-03-23T05:04:46.035Z,1020.08
2019-03-23T05:05:46.092Z,1020.07
2019-03-23T05:06:46.093Z,1020.07
2019-03-23T05:07:46.093Z,1020.07
2019-03-23T05:08:46.149Z,1020.10
2019-03-23T05:09:46.160Z,1020.04
2019-03-23T05:10:46.155Z,1020.05
2019-03-23T05:11:46.150Z,1020.04
2019-03-23T05:12:46.153Z,1019.98
2019-03-23T05:13:46.156Z,1019.99
2019-03-23T05:14:46.185Z,1020.00
2019-03-23T05:15:46.175Z,1019.99
2019-03-23T05:16:46.188Z,1019.99
2019-03-23T05:17:46.204Z,1020.00
2019-03-23T05:18:46.217Z,1020.00
2019-03-23T05:19:46.233Z,1019.98
2019-03-23T05:20:46.247Z,1019.98
2019-03-23T05:21:46.277Z,1019.99
2019-03-23T05:22:46.277Z,1019.97
2019-03-23T05:23:46.292Z,1019.96
2019-03-23T05:24:46.304Z,1019.92
2019-03-23T05:25:46.318Z,1019.89
2019-03-23T05:26:46.333Z,1019.89
2019-03-23T05:27:46.348Z,1019.92
2019-03-23T05:28:46.365Z,1019.91
2019-03-23T05:29:46.377Z,1019.93
2019-03-23T05:30:46.392Z,1019.94
2019-03-23T05:31:46.407Z,1019.96
2019-03-23T05:32:46.426Z,1019.93
2019-03-23T05:33:46.436Z,1019.99
2019-03-23T05:34:46.453Z,1020.02
2019-03-23T05:35:46.465Z,1020.01
2019-03-23T05:36:46.479Z,1020.01
2019-03-23T05:37:46.497Z,1020.00
2019-03-23T05:38:46.509Z,1020.02
2019-03-23T05:39:46.522Z,1020.02
2019-03-23T05:40:46.539Z,1020.01
2019-03-23T05:41:46.551Z,1020.02
2019-03-23T05:42:46.568Z,1020.01
2019-03-23T05:43:46.579Z,1020.00
2019-03-23T05:44:46.596Z,1019.99
2019-03-23T05:45:46.611Z,1019.97
2019-03-23T05:46:46.627Z,1019.98
2019-03-23T05:47:46.638Z,1020.01
2019-03-23T05:48:46.654Z,1019.92
2019-03-23T05:49:46.668Z,1019.97
2019-03-23T05:50:46.684Z,1019.97
2019-03-23T05:51:46.696Z,1019.96
2019-03-23T05:52:46.713Z,1019.94
2019-03-23T05:53:46.726Z,1019.94
2019-03-23T05:54:46.742Z,1019.97
2019-03-23T05:55:46.772Z,1019.98
2019-03-23T05:56:46.770Z,1019.99
2019-03-23T05:57:46.786Z,1020.06
2019-03-23T05:58:46.801Z,1020.02
2019-03-23T05:59:46.816Z,1020.04
2019-03-23T06:00:46.829Z,1020.00
2019-03-23T06:01:46.844Z,1019.97
2019-03-23T06:02:46.858Z,1019.98
2019-03-23T06:03:46.874Z,1020.00
2019-03-23T06:04:46.892Z,1019.96
2019-03-23T06:05:46.903Z,1019.97
2019-03-23T06:06:46.917Z,1019.99
2019-03-23T06:07:46.931Z,1019.97
2019-03-23T06:08:54.548Z,1020.01
2019-03-23T06:09:46.962Z,1020.01
2019-03-23T06:10:46.976Z,1019.95
2019-03-23T06:11:46.992Z,1019.98
2019-03-23T06:12:47.006Z,1019.97
2019-03-23T06:13:47.025Z,1019.98
2019-03-23T06:14:47.035Z,1019.99
2019-03-23T06:15:47.051Z,1019.98
2019-03-23T06:16:47.065Z,1019.98
2019-03-23T06:17:47.077Z,1019.95
2019-03-23T06:18:47.095Z,1019.99
2019-03-23T06:19:47.108Z,1019.96
2019-03-23T06:20:47.122Z,1019.98
2019-03-23T06:21:47.142Z,1019.96
2019-03-23T06:22:47.151Z,1019.96
2019-03-23T06:23:47.169Z,1019.99
2019-03-23T06:24:47.181Z,1019.96
2019-03-23T06:25:47.196Z,1019.96
2019-03-23T06:26:47.212Z,1019.95
2019-03-23T06:27:47.226Z,1019.97
2019-03-23T06:28:47.243Z,1019.96
2019-03-23T06:29:47.255Z,1019.99
2019-03-23T06:30:47.272Z,1020.00
2019-03-23T06:31:47.290Z,1020.04
2019-03-23T06:32:47.303Z,1020.03
2019-03-23T06:33:47.319Z,1020.00
2019-03-23T06:34:47.332Z,1020.04
2019-03-23T06:35:47.347Z,1020.08
2019-03-23T06:36:47.362Z,1020.08
2019-03-23T06:37:47.375Z,1020.08
2019-03-23T06:38:47.389Z,1020.00
2019-03-23T06:39:47.411Z,1020.01
2019-03-23T06:40:47.420Z,1020.00
2019-03-23T06:41:47.440Z,1019.98
2019-03-23T06:42:47.454Z,1020.00
2019-03-23T06:43:47.469Z,1019.99
2019-03-23T06:44:47.480Z,1019.99
2019-03-23T06:45:47.496Z,1019.99
2019-03-23T06:46:47.515Z,1020.01
2019-03-23T06:47:47.526Z,1019.98
2019-03-23T06:48:47.545Z,1019.99
2019-03-23T06:49:47.559Z,1020.00
2019-03-23T06:50:47.573Z,1020.02
2019-03-23T06:51:47.588Z,1019.97
2019-03-23T06:52:47.604Z,1020.01
2019-03-23T06:53:47.620Z,1020.00
2019-03-23T06:54:47.636Z,1020.01
2019-03-23T06:55:47.654Z,1020.05
2019-03-23T06:56:47.664Z,1020.02
2019-03-23T06:57:47.680Z,1020.00
2019-03-23T06:58:47.698Z,1020.00
2019-03-23T06:59:47.712Z,1020.01
2019-03-23T07:00:47.730Z,1020.01
2019-03-23T07:01:47.744Z,1019.99
2019-03-23T07:02:47.759Z,1020.06
2019-03-23T07:03:47.775Z,1020.04
2019-03-23T07:04:47.789Z,1020.01
2019-03-23T07:05:47.806Z,1020.06
2019-03-23T07:06:47.876Z,1020.04
2019-03-23T07:07:47.836Z,1020.00
2019-03-23T07:08:47.868Z,1019.99
2019-03-23T07:09:47.943Z,1019.92
2019-03-23T07:10:47.934Z,1019.98
2019-03-23T07:11:47.948Z,1019.98
2019-03-23T07:12:47.940Z,1019.93
2019-03-23T07:13:48.012Z,1019.94
2019-03-23T07:14:48.008Z,1019.96
2019-03-23T07:15:47.999Z,1019.97
2019-03-23T07:16:48.014Z,1019.97
2019-03-23T07:17:48.000Z,1019.93
2019-03-23T07:18:48.014Z,1019.95
2019-03-23T07:19:48.029Z,1019.95
2019-03-23T07:20:48.047Z,1019.93
2019-03-23T07:21:48.062Z,1019.94
2019-03-23T07:22:48.080Z,1019.89
2019-03-23T07:23:48.095Z,1019.93
2019-03-23T07:24:48.110Z,1019.91
2019-03-23T07:25:48.126Z,1019.91
2019-03-23T07:26:48.145Z,1019.98
2019-03-23T07:27:48.159Z,1019.97
2019-03-23T07:28:48.180Z,1019.98
2019-03-23T07:29:48.258Z,1020.00
2019-03-23T07:30:48.214Z,1020.01
2019-03-23T07:31:48.225Z,1020.00
2019-03-23T07:32:48.243Z,1020.08
2019-03-23T07:33:48.259Z,1020.04
2019-03-23T07:34:48.276Z,1020.06
2019-03-23T07:35:48.297Z,1020.10
2019-03-23T07:36:48.313Z,1020.13
2019-03-23T07:37:48.334Z,1020.14
2019-03-23T07:38:48.346Z,1020.15
2019-03-23T07:39:48.359Z,1020.14
2019-03-23T07:40:48.380Z,1020.18
2019-03-23T07:41:48.397Z,1020.18
2019-03-23T07:42:48.413Z,1020.16
2019-03-23T07:43:48.431Z,1020.17
2019-03-23T07:44:48.444Z,1020.19
2019-03-23T07:45:48.465Z,1020.19
2019-03-23T07:46:48.482Z,1020.23
2019-03-23T07:47:48.499Z,1020.24
2019-03-23T07:48:48.516Z,1020.22
2019-03-23T07:49:48.533Z,1020.20
2019-03-23T07:50:48.558Z,1020.20
2019-03-23T07:51:48.568Z,1020.17
2019-03-23T07:52:48.585Z,1020.17
2019-03-23T07:53:48.603Z,1020.16
2019-03-23T07:54:48.622Z,1020.19
2019-03-23T07:55:48.642Z,1020.20
2019-03-23T07:56:48.659Z,1020.16
2019-03-23T07:57:48.677Z,1020.12
2019-03-23T07:58:48.694Z,1020.14
2019-03-23T07:59:48.709Z,1020.14
2019-03-23T08:00:48.730Z,1020.13
2019-03-23T08:01:48.745Z,1020.12
2019-03-23T08:02:48.763Z,1020.13
2019-03-23T08:03:48.784Z,1020.11
2019-03-23T08:04:48.799Z,1020.09
2019-03-23T08:05:48.818Z,1020.08
2019-03-23T08:06:48.835Z,1020.11
2019-03-23T08:07:48.855Z,1020.05
2019-03-23T08:08:48.873Z,1020.05
2019-03-23T08:09:48.891Z,1020.08
2019-03-23T08:10:48.904Z,1020.07
2019-03-23T08:11:48.923Z,1020.04
2019-03-23T08:12:48.944Z,1020.05
2019-03-23T08:13:48.960Z,1020.07
2019-03-23T08:14:48.979Z,1020.07
2019-03-23T08:15:49.000Z,1020.12
2019-03-23T08:16:49.016Z,1020.10
2019-03-23T08:17:49.039Z,1020.12
2019-03-23T08:18:49.054Z,1020.08
2019-03-23T08:19:49.070Z,1020.09
2019-03-23T08:20:49.093Z,1020.09
2019-03-23T08:21:49.110Z,1020.10
2019-03-23T08:22:49.126Z,1020.10
2019-03-23T08:23:49.143Z,1020.07
2019-03-23T08:24:49.159Z,1020.01
2019-03-23T08:25:49.179Z,1020.07
2019-03-23T08:26:49.199Z,1020.06
2019-03-23T08:27:49.214Z,1020.02
2019-03-23T08:28:49.236Z,1020.02
2019-03-23T08:29:49.252Z,1020.01
2019-03-23T08:30:49.269Z,1020.02
2019-03-23T08:31:49.287Z,1020.06
2019-03-23T08:32:49.307Z,1019.95
2019-03-23T08:33:49.327Z,1020.01
2019-03-23T08:34:49.343Z,1020.04
2019-03-23T08:35:49.362Z,1020.05
2019-03-23T08:36:49.382Z,1020.04
2019-03-23T08:37:49.404Z,1020.05
2019-03-23T08:38:51.608Z,1020.02
2019-03-23T08:39:49.436Z,1020.02
2019-03-23T08:40:49.456Z,1020.02
2019-03-23T08:41:49.473Z,1020.06
2019-03-23T08:42:49.494Z,1020.05
2019-03-23T08:43:49.511Z,1020.00
2019-03-23T08:44:49.531Z,1020.01
2019-03-23T08:45:49.550Z,1020.03
2019-03-23T08:46:49.587Z,1019.99
2019-03-23T08:47:49.592Z,1019.98
2019-03-23T08:48:49.605Z,1019.97
2019-03-23T08:49:49.625Z,1019.97
2019-03-23T08:50:49.646Z,1019.92
2019-03-23T08:51:49.663Z,1019.88
2019-03-23T08:52:49.684Z,1019.91
2019-03-23T08:53:49.702Z,1019.92
2019-03-23T08:54:49.811Z,1019.90
2019-03-23T08:55:49.812Z,1019.88
2019-03-23T08:56:49.838Z,1019.88
2019-03-23T08:57:49.808Z,1019.84
2019-03-23T08:58:49.828Z,1019.87
2019-03-23T08:59:49.880Z,1019.88
2019-03-23T09:00:49.874Z,1019.88
2019-03-23T09:01:49.869Z,1019.88
2019-03-23T09:02:49.874Z,1019.88
2019-03-23T09:03:52.616Z,1019.91
2019-03-23T09:04:49.912Z,1019.87
2019-03-23T09:05:49.930Z,1019.89
2019-03-23T09:06:49.950Z,1019.91
2019-03-23T09:07:52.375Z,1019.98
2019-03-23T09:08:49.988Z,1019.96
2019-03-23T09:09:58.901Z,1019.96
2019-03-23T09:10:50.030Z,1019.95
2019-03-23T09:11:50.047Z,1019.96
2019-03-23T09:12:50.068Z,1020.00
2019-03-23T09:13:50.088Z,1020.04
2019-03-23T09:14:50.105Z,1019.98
2019-03-23T09:15:50.123Z,1019.95
2019-03-23T09:16:50.144Z,1019.94
2019-03-23T09:17:50.164Z,1019.95
2019-03-23T09:18:50.186Z,1019.94
2019-03-23T09:19:50.203Z,1019.89
2019-03-23T09:20:50.223Z,1019.96
2019-03-23T09:21:50.242Z,1019.95
2019-03-23T09:22:50.264Z,1019.95
2019-03-23T09:23:50.281Z,1019.92
2019-03-23T09:24:50.312Z,1019.94
2019-03-23T09:25:50.320Z,1019.97
2019-03-23T09:26:50.339Z,1019.94
2019-03-23T09:27:50.359Z,1019.94
2019-03-23T09:28:50.381Z,1019.96
2019-03-23T09:29:50.400Z,1020.00
2019-03-23T09:30:50.422Z,1019.97
2019-03-23T09:31:50.440Z,1019.99
2019-03-23T09:32:50.460Z,1020.01
2019-03-23T09:33:50.481Z,1020.00
2019-03-23T09:34:50.499Z,1019.99
2019-03-23T09:35:50.520Z,1019.93
2019-03-23T09:36:50.542Z,1019.97
2019-03-23T09:37:50.562Z,1019.99
2019-03-23T09:38:50.582Z,1020.02
2019-03-23T09:39:50.599Z,1019.97
2019-03-23T09:40:50.626Z,1020.06
2019-03-23T09:41:50.640Z,1020.04
2019-03-23T09:42:50.663Z,1020.07
2019-03-23T09:43:50.681Z,1020.13
2019-03-23T09:44:50.700Z,1020.22
2019-03-23T09:45:50.722Z,1020.19
2019-03-23T09:46:50.739Z,1020.20
2019-03-23T09:47:50.760Z,1020.23
2019-03-23T09:48:50.782Z,1020.18
2019-03-23T09:49:50.802Z,1020.20
2019-03-23T09:50:50.825Z,1020.22
2019-03-23T09:51:50.841Z,1020.18
2019-03-23T09:52:50.862Z,1020.14
2019-03-23T09:53:50.885Z,1020.18
2019-03-23T09:54:50.905Z,1020.15
2019-03-23T09:55:50.924Z,1020.17
2019-03-23T09:56:50.946Z,1020.18
2019-03-23T09:57:50.965Z,1020.15
2019-03-23T09:58:50.986Z,1020.18
2019-03-23T09:59:51.009Z,1020.18
2019-03-23T10:00:51.026Z,1020.18
2019-03-23T10:01:51.046Z,1020.19
2019-03-23T10:02:51.072Z,1020.16
2019-03-23T10:03:51.087Z,1020.20
2019-03-23T10:04:51.108Z,1020.18
2019-03-23T10:05:51.130Z,1020.18
2019-03-23T10:06:51.151Z,1020.20
2019-03-23T10:07:51.172Z,1020.21
2019-03-23T10:08:51.191Z,1020.21
2019-03-23T10:09:51.212Z,1020.23
2019-03-23T10:10:51.234Z,1020.21
2019-03-23T10:11:51.252Z,1020.24
2019-03-23T10:12:51.275Z,1020.23
2019-03-23T10:13:51.294Z,1020.21
2019-03-23T10:14:51.326Z,1020.19
2019-03-23T10:15:51.334Z,1020.21
2019-03-23T10:16:51.357Z,1020.22
2019-03-23T10:17:51.377Z,1020.25
2019-03-23T10:18:51.397Z,1020.21
2019-03-23T10:19:51.417Z,1020.19
2019-03-23T10:20:51.439Z,1020.21
2019-03-23T10:21:51.459Z,1020.20
2019-03-23T10:22:51.479Z,1020.22
2019-03-23T10:23:51.501Z,1020.24
2019-03-23T10:24:51.523Z,1020.20
2019-03-23T10:25:51.542Z,1020.18
2019-03-23T10:26:52.357Z,1020.14
2019-03-23T10:27:51.584Z,1020.15
2019-03-23T10:28:51.617Z,1020.14
2019-03-23T10:29:51.700Z,1020.05
2019-03-23T10:30:51.694Z,1020.12
2019-03-23T10:31:51.694Z,1020.08
2019-03-23T10:32:51.762Z,1020.14
2019-03-23T10:33:51.758Z,1020.12
2019-03-23T10:34:51.760Z,1020.17
2019-03-23T10:35:51.754Z,1020.10
2019-03-23T10:36:51.770Z,1020.06
2019-03-23T10:37:51.792Z,1020.08
2019-03-23T10:38:51.816Z,1020.07
2019-03-23T10:39:51.833Z,1020.11
2019-03-23T10:40:51.856Z,1020.17
2019-03-23T10:41:51.876Z,1020.09
2019-03-23T10:42:51.901Z,1020.13
2019-03-23T10:43:51.918Z,1020.12
2019-03-23T10:44:51.940Z,1020.17
2019-03-23T10:45:51.961Z,1020.18
2019-03-23T10:46:51.980Z,1020.18
2019-03-23T10:47:52.190Z,1020.20
2019-03-23T10:48:52.024Z,1020.16
2019-03-23T10:49:52.050Z,1020.17
2019-03-23T10:50:52.066Z,1020.17
2019-03-23T10:51:52.092Z,1020.20
2019-03-23T10:52:52.107Z,1020.23
2019-03-23T10:53:52.133Z,1020.32
2019-03-23T10:54:52.152Z,1020.29
2019-03-23T10:55:52.175Z,1020.31
2019-03-23T10:56:52.194Z,1020.29
2019-03-23T10:57:52.215Z,1020.24
2019-03-23T10:58:52.240Z,1020.25
2019-03-23T10:59:52.269Z,1020.29
2019-03-23T11:00:52.280Z,1020.27
2019-03-23T11:01:52.300Z,1020.32
2019-03-23T11:02:52.323Z,1020.29
2019-03-23T11:03:52.343Z,1020.26
2019-03-23T11:04:52.366Z,1020.26
2019-03-23T11:05:52.385Z,1020.29
2019-03-23T11:06:52.414Z,1020.30
2019-03-23T11:07:52.430Z,1020.24
2019-03-23T11:08:52.450Z,1020.30
2019-03-23T11:09:52.471Z,1020.33
2019-03-23T11:10:52.492Z,1020.29
2019-03-23T11:11:52.513Z,1020.37
2019-03-23T11:12:52.539Z,1020.35
2019-03-23T11:13:52.556Z,1020.35
2019-03-23T11:14:52.580Z,1020.39
2019-03-23T11:15:52.601Z,1020.36
2019-03-23T11:16:52.621Z,1020.32
2019-03-23T11:17:52.643Z,1020.37
2019-03-23T11:18:52.663Z,1020.32
2019-03-23T11:19:52.684Z,1020.39
2019-03-23T11:20:52.707Z,1020.36
2019-03-23T11:21:52.728Z,1020.33
2019-03-23T11:22:52.751Z,1020.32
2019-03-23T11:23:52.773Z,1020.34
2019-03-23T11:24:52.793Z,1020.36
2019-03-23T11:25:52.815Z,1020.35
2019-03-23T11:26:52.836Z,1020.28
2019-03-23T11:27:52.857Z,1020.27
2019-03-23T11:28:52.878Z,1020.33
2019-03-23T11:29:52.910Z,1020.25
2019-03-23T11:30:52.923Z,1020.27
2019-03-23T11:31:52.948Z,1020.27
2019-03-23T11:32:52.966Z,1020.32
2019-03-23T11:33:52.986Z,1020.39
2019-03-23T11:34:53.030Z,1020.41
2019-03-23T11:35:57.746Z,1020.44
2019-03-23T11:36:53.055Z,1020.37
2019-03-23T11:37:53.250Z,1020.39
2019-03-23T11:38:53.100Z,1020.34
2019-03-23T11:39:53.120Z,1020.32
2019-03-23T11:40:55.273Z,1020.33
2019-03-23T11:41:53.160Z,1020.36
2019-03-23T11:42:53.185Z,1020.37
2019-03-23T11:43:53.204Z,1020.39
2019-03-23T11:44:53.274Z,1020.42
2019-03-23T11:45:53.248Z,1020.44
2019-03-23T11:46:53.279Z,1020.43
2019-03-23T11:47:53.293Z,1020.45
2019-03-23T11:48:53.316Z,1020.37
2019-03-23T11:49:53.335Z,1020.46
2019-03-23T11:50:53.361Z,1020.47
2019-03-23T11:51:53.379Z,1020.49
2019-03-23T11:52:53.399Z,1020.48
2019-03-23T11:53:53.425Z,1020.47
2019-03-23T11:54:53.445Z,1020.46
2019-03-23T11:55:53.465Z,1020.53
2019-03-23T11:56:53.488Z,1020.59
2019-03-23T11:57:53.578Z,1020.57
2019-03-23T11:58:54.066Z,1020.59
2019-03-23T11:59:53.598Z,1020.61
2019-03-23T12:00:53.656Z,1020.65
2019-03-23T12:01:53.658Z,1020.63
2019-03-23T12:02:53.651Z,1020.69
2019-03-23T12:03:53.657Z,1020.73
2019-03-23T12:04:53.665Z,1020.73
2019-03-23T12:05:53.685Z,1020.69